Relevés horaires Matro (Suisse)


Relevés horaires à Matro - Dimanche 21 Mars 2021
Heure UTC1 Température [°C] Vent [km/h] Hum. [%] Pres.4 [hPa] Visi. [Km] Nébu. [octa] Préc.5 [mm] Cond.
2m. Res. Ros. Dir.2 Vit. Moy. Raf.3
23:00 -7.9 -20.1 -15.1 NNO 64.8 -- 107.4 56 850(0.1/3h) -- -- -- --
22:00 -8.1 -20.1 -14.8 NNO 61.1 -- 92.6 58 850(0.4/3h) -- -- -- --
21:00 -7.8 -19.5 -14.8 NNO 59.3 -- 96.3 57 850(-0.1/3h) -- -- -- --
20:00 -7.5 -18.8 -15.0 NNO 55.6 -- 94.5 55 850(-0.3/3h) -- -- -- --
19:00 -7.3 -19.1 -14.8 NNO 63.0 -- 96.3 55 850(-0.8/3h) -- -- -- --
18:00 -6.7 -16.6 -15.7 NO 42.6 -- 90.7 49 850(-0.6/3h) -- -- -- --
17:00 -6.3 -16.7 -13.7 NNO 50.0 -- 83.3 56 850(-0.7/3h) -- -- -- --
16:00 -6.1 -15.4 -11.9 NNO 38.9 -- 90.7 63 850(-0.9/3h) -- -- -- --
15:00 -5.4 -15.4 -11.7 NNO 48.2 -- 77.8 61 850(-1.0/3h) -- -- -- --
14:00 -4.0 -12.6 -10.9 NNO 38.9 -- 64.8 59 850(-0.8/3h) -- -- -- --
13:00 -3.2 -10.6 -10.0 NNO 29.6 -- 68.5 59 850(-0.7/3h) -- -- -- --
12:00 -3.4 -11.8 -10.6 NO 38.9 -- 90.7 57 850(-0.3/3h) -- -- -- --
11:00 -3.5 -12.6 -11.4 NNO 46.3 -- 77.8 54 850(-0.4/3h) -- -- -- --
10:00 -3.5 -11.2 -10.9 NNO 31.5 -- 57.4 56 850(-0.1/3h) -- -- -- --
09:00 -3.9 -12.3 -10.9 NNO 37.0 -- 68.5 58 850(0.3/3h) -- -- -- --
08:00 -4.5 -13.5 -11.0 NNO 40.7 -- 66.7 60 850(0.2/3h) -- -- -- --
07:00 -5.3 -15.1 -10.8 NNO 46.3 -- 68.5 65 850(-0.1/3h) -- -- -- --
06:00 -5.6 -15.3 -11.4 NNO 44.4 -- 72.2 64 850(-0.6/3h) -- -- -- --
05:00 -5.5 -15.2 -11.4 NNO 44.4 -- 63.0 63 850(-0.7/3h) -- -- -- --
04:00 -5.6 -15.1 -11.6 NNO 42.6 -- 68.5 62 850(-1.0/3h) -- -- -- --
03:00 -6.3 -16.2 -12.0 NNO 44.4 -- 72.2 64 850(-1.0/3h) -- -- -- --
02:00 -7.4 -17.9 -13.7 NNO 46.3 -- 72.2 61 850(-0.8/3h) -- -- -- --
01:00 -8.1 -19.2 -15.3 NNO 50.0 -- 70.4 56 850(-0.5/3h) -- -- -- --
00:00 -8.4 -19.3 -16.6 NNO 46.3 -- 74.1 51 850(0.1/3h) -- -- -- --

1 Coordinated Universal Time. Actuellement il est 05:00 locale et 03:00 UTC.

2 Le vent souffle depuis la direction indiquée vers la direction oposée.

3 Les rafales max. sont disponible 40 min après l'heure du relevé.

4 Pour les stations d'altitude (plus de 600m) le géopotentiel du niveau le plus proche de la pression obligatoire est indiqué.

5 Les stations disposant d'un diffuseur peuvent indiquer "trace". Cela signifie que des précipitations ont touchés le sol mais que la quantité est inférieure à 0.1 mm.

Copyright

Les données affichées sur cette page sont la propriété exclusive de Météo Suisse.

Récapitulatif de la journée
Température [°C] Vent [km/h] Ensoleillement4 [h] Precipitations totale5 [mm] Pression [Hpa]
Min1 Max.2 Moy.3 Max. Min Max.
-9.4 -2.8 0 107.4 8 h 42 min 0 850.0 850.0

1 Température minimale relevée entre 18:00 UTC la veille et 18:00 UTC le jour donné.

2 Température maximale relevée entre 06:00 UTC le jour donné et 06:00 UTC le lendemain.

3 Vent moyen de la journée basé sur les relevés horaires.

4 Ensoleillement en heures relevé entre 06:00 UTC la veille et 06:00 UTC le jour donné.

5 Précipitations totales tombées entre 06:00 UTC la jour donné et 06:00 UTC le lendemain.

Graphiques horaires